createdAt,value
2023-05-02T00:00:49.288Z,0.00
2023-05-02T00:01:49.453Z,0.00
2023-05-02T00:02:49.356Z,0.00
2023-05-02T00:03:49.360Z,0.00
2023-05-02T00:04:49.270Z,0.00
2023-05-02T00:05:49.220Z,0.00
2023-05-02T00:06:49.279Z,0.00
2023-05-02T00:07:49.198Z,0.00
2023-05-02T00:08:49.287Z,0.00
2023-05-02T00:09:49.181Z,0.00
2023-05-02T00:10:49.187Z,0.00
2023-05-02T00:11:49.190Z,0.00
2023-05-02T00:12:49.191Z,0.00
2023-05-02T00:13:49.129Z,0.00
2023-05-02T00:14:49.129Z,0.00
2023-05-02T00:15:49.152Z,0.00
2023-05-02T00:16:49.205Z,0.00
2023-05-02T00:17:49.200Z,0.00
2023-05-02T00:18:49.086Z,0.00
2023-05-02T00:19:49.178Z,0.00
2023-05-02T00:20:49.102Z,0.00
2023-05-02T00:21:49.093Z,0.00
2023-05-02T00:22:49.047Z,0.00
2023-05-02T00:23:49.032Z,0.00
2023-05-02T00:24:49.016Z,0.00
2023-05-02T00:25:49.017Z,0.00
2023-05-02T00:26:49.070Z,0.00
2023-05-02T00:27:49.028Z,0.00
2023-05-02T00:28:48.990Z,0.00
2023-05-02T00:29:48.954Z,0.00
2023-05-02T00:30:48.974Z,0.00
2023-05-02T00:31:49.020Z,0.00
2023-05-02T00:32:48.971Z,0.00
2023-05-02T00:33:48.910Z,0.00
2023-05-02T00:34:48.909Z,0.00
2023-05-02T00:35:48.892Z,0.00
2023-05-02T00:36:48.895Z,0.00
2023-05-02T00:37:48.864Z,0.00
2023-05-02T00:38:48.856Z,0.00
2023-05-02T00:39:48.846Z,0.00
2023-05-02T00:40:48.870Z,0.00
2023-05-02T00:41:48.866Z,0.00
2023-05-02T00:42:48.810Z,0.00
2023-05-02T00:43:48.831Z,0.00
2023-05-02T00:44:49.834Z,0.00
2023-05-02T00:45:48.806Z,0.00
2023-05-02T00:46:48.900Z,0.00
2023-05-02T00:47:48.781Z,0.00
2023-05-02T00:48:48.750Z,0.00
2023-05-02T00:49:48.741Z,0.00
2023-05-02T00:50:48.722Z,0.00
2023-05-02T00:51:48.729Z,0.00
2023-05-02T00:52:48.705Z,0.00
2023-05-02T00:53:48.724Z,0.00
2023-05-02T00:54:48.674Z,0.00
2023-05-02T00:55:48.664Z,0.00
2023-05-02T00:56:48.671Z,0.00
2023-05-02T00:57:48.643Z,0.00
2023-05-02T00:58:48.664Z,0.00
2023-05-02T00:59:48.652Z,0.00
2023-05-02T01:00:48.632Z,0.00
2023-05-02T01:01:48.787Z,0.00
2023-05-02T01:02:49.441Z,0.00
2023-05-02T01:03:48.637Z,0.00
2023-05-02T01:04:48.598Z,0.00
2023-05-02T01:05:48.555Z,0.00
2023-05-02T01:06:48.592Z,0.00
2023-05-02T01:07:48.539Z,0.00
2023-05-02T01:08:48.521Z,0.00
2023-05-02T01:09:48.508Z,0.00
2023-05-02T01:10:48.498Z,0.00
2023-05-02T01:11:48.492Z,0.00
2023-05-02T01:12:48.481Z,0.00
2023-05-02T01:13:48.485Z,0.00
2023-05-02T01:14:48.451Z,0.00
2023-05-02T01:15:48.462Z,0.00
2023-05-02T01:16:48.432Z,0.00
2023-05-02T01:17:48.518Z,0.00
2023-05-02T01:18:48.445Z,0.00
2023-05-02T01:19:48.380Z,0.00
2023-05-02T01:20:48.412Z,0.00
2023-05-02T01:21:48.371Z,0.00
2023-05-02T01:22:48.391Z,0.00
2023-05-02T01:23:48.357Z,0.00
2023-05-02T01:24:48.348Z,0.00
2023-05-02T01:25:48.544Z,0.00
2023-05-02T01:26:48.318Z,0.00
2023-05-02T01:27:48.338Z,0.00
2023-05-02T01:28:48.347Z,0.00
2023-05-02T01:29:48.291Z,0.00
2023-05-02T01:30:48.291Z,0.00
2023-05-02T01:31:48.346Z,0.00
2023-05-02T01:32:48.277Z,0.00
2023-05-02T01:33:48.235Z,0.00
2023-05-02T01:34:48.223Z,0.00
2023-05-02T01:35:48.330Z,0.00
2023-05-02T01:36:48.216Z,0.00
2023-05-02T01:37:48.200Z,0.00
2023-05-02T01:38:48.184Z,0.00
2023-05-02T01:39:48.206Z,0.00
2023-05-02T01:40:48.302Z,0.00
2023-05-02T01:41:48.190Z,0.00
2023-05-02T01:42:48.147Z,0.00
2023-05-02T01:43:48.190Z,0.00
2023-05-02T01:44:48.135Z,0.00
2023-05-02T01:45:48.121Z,0.00
2023-05-02T01:46:48.131Z,0.00
2023-05-02T01:47:48.172Z,0.00
2023-05-02T01:48:48.120Z,0.00
2023-05-02T01:49:48.075Z,0.00
2023-05-02T01:50:48.214Z,0.00
2023-05-02T01:51:48.072Z,0.00
2023-05-02T01:52:48.079Z,0.00
2023-05-02T01:53:48.059Z,0.00
2023-05-02T01:54:48.018Z,0.00
2023-05-02T01:55:48.010Z,0.00
2023-05-02T01:56:48.006Z,0.00
2023-05-02T01:57:47.968Z,0.00
2023-05-02T01:58:48.027Z,0.00
2023-05-02T01:59:47.974Z,0.00
2023-05-02T02:00:47.984Z,0.00
2023-05-02T02:01:47.945Z,0.00
2023-05-02T02:02:48.053Z,0.00
2023-05-02T02:03:47.930Z,0.00
2023-05-02T02:04:47.985Z,0.00
2023-05-02T02:05:48.060Z,0.00
2023-05-02T02:06:47.938Z,0.00
2023-05-02T02:07:47.865Z,0.00
2023-05-02T02:08:47.851Z,0.00
2023-05-02T02:09:47.875Z,0.00
2023-05-02T02:10:47.833Z,0.00
2023-05-02T02:11:47.912Z,0.00
2023-05-02T02:12:47.815Z,0.00
2023-05-02T02:13:47.813Z,0.00
2023-05-02T02:14:47.811Z,0.00
2023-05-02T02:15:47.797Z,0.00
2023-05-02T02:16:47.814Z,0.00
2023-05-02T02:17:47.795Z,0.00
2023-05-02T02:18:47.784Z,0.00
2023-05-02T02:19:47.720Z,0.00
2023-05-02T02:20:47.764Z,0.00
2023-05-02T02:21:47.728Z,0.00
2023-05-02T02:22:47.746Z,0.00
2023-05-02T02:23:47.684Z,0.00
2023-05-02T02:24:47.675Z,0.00
2023-05-02T02:25:47.692Z,0.00
2023-05-02T02:26:47.659Z,0.00
2023-05-02T02:27:47.637Z,0.00
2023-05-02T02:28:47.641Z,0.00
2023-05-02T02:29:47.624Z,0.00
2023-05-02T02:30:47.671Z,0.00
2023-05-02T02:31:47.600Z,0.00
2023-05-02T02:32:47.623Z,0.00
2023-05-02T02:33:47.600Z,0.00
2023-05-02T02:34:47.565Z,0.00
2023-05-02T02:35:47.544Z,0.00
2023-05-02T02:36:47.561Z,0.00
2023-05-02T02:37:47.521Z,0.00
2023-05-02T02:38:47.581Z,0.00
2023-05-02T02:39:47.557Z,0.00
2023-05-02T02:40:47.579Z,0.00
2023-05-02T02:41:47.482Z,0.00
2023-05-02T02:42:47.488Z,0.00
2023-05-02T02:43:47.556Z,0.00
2023-05-02T02:44:47.446Z,0.00
2023-05-02T02:45:47.459Z,0.00
2023-05-02T02:46:47.622Z,0.00
2023-05-02T02:47:47.456Z,0.00
2023-05-02T02:48:47.409Z,0.00
2023-05-02T02:49:47.400Z,0.00
2023-05-02T02:50:47.395Z,0.00
2023-05-02T02:51:47.378Z,0.00
2023-05-02T02:52:47.373Z,0.00
2023-05-02T02:53:47.344Z,0.00
2023-05-02T02:54:47.339Z,0.00
2023-05-02T02:55:47.387Z,0.00
2023-05-02T02:56:47.309Z,0.00
2023-05-02T02:57:47.308Z,0.00
2023-05-02T02:58:47.313Z,0.00
2023-05-02T02:59:47.269Z,0.00
2023-05-02T03:00:47.263Z,0.00
2023-05-02T03:01:47.325Z,0.00
2023-05-02T03:02:47.276Z,0.00
2023-05-02T03:03:47.301Z,0.00
2023-05-02T03:04:47.255Z,0.00
2023-05-02T03:05:47.220Z,0.00
2023-05-02T03:06:47.365Z,0.00
2023-05-02T03:07:47.224Z,0.00
2023-05-02T03:08:47.179Z,0.00
2023-05-02T03:09:47.171Z,0.00
2023-05-02T03:10:47.156Z,0.00
2023-05-02T03:11:47.154Z,0.00
2023-05-02T03:12:47.141Z,0.00
2023-05-02T03:13:47.165Z,0.00
2023-05-02T03:14:47.110Z,0.00
2023-05-02T03:15:47.117Z,0.00
2023-05-02T03:16:47.110Z,0.00
2023-05-02T03:17:47.131Z,0.00
2023-05-02T03:18:47.099Z,0.00
2023-05-02T03:19:47.055Z,0.00
2023-05-02T03:20:47.051Z,0.00
2023-05-02T03:21:47.034Z,0.00
2023-05-02T03:22:47.028Z,0.00
2023-05-02T03:23:47.021Z,0.00
2023-05-02T03:24:46.992Z,0.00
2023-05-02T03:25:46.987Z,0.00
2023-05-02T03:26:46.992Z,4.00
2023-05-02T03:27:46.977Z,4.00
2023-05-02T03:28:46.969Z,4.00
2023-05-02T03:29:47.126Z,0.00
2023-05-02T03:30:46.937Z,4.00
2023-05-02T03:31:47.151Z,4.00
2023-05-02T03:32:46.966Z,4.00
2023-05-02T03:33:46.900Z,8.00
2023-05-02T03:34:46.889Z,8.00
2023-05-02T03:35:46.935Z,12.00
2023-05-02T03:36:46.871Z,12.00
2023-05-02T03:37:46.865Z,16.00
2023-05-02T03:38:46.837Z,12.00
2023-05-02T03:39:46.853Z,16.00
2023-05-02T03:40:46.846Z,20.00
2023-05-02T03:41:46.808Z,24.00
2023-05-02T03:42:46.797Z,28.00
2023-05-02T03:43:46.789Z,32.00
2023-05-02T03:44:46.780Z,36.00
2023-05-02T03:45:48.162Z,40.00
2023-05-02T03:46:46.797Z,44.00
2023-05-02T03:47:46.825Z,52.00
2023-05-02T03:48:46.718Z,56.00
2023-05-02T03:49:46.758Z,64.00
2023-05-02T03:50:46.720Z,68.00
2023-05-02T03:51:46.729Z,76.00
2023-05-02T03:52:46.706Z,84.00
2023-05-02T03:53:46.704Z,92.00
2023-05-02T03:54:46.680Z,100.00
2023-05-02T03:55:46.653Z,108.00
2023-05-02T03:56:46.641Z,116.00
2023-05-02T03:57:46.711Z,128.00
2023-05-02T03:58:46.669Z,136.00
2023-05-02T03:59:46.621Z,148.00
2023-05-02T04:00:46.662Z,160.00
2023-05-02T04:01:46.627Z,176.00
2023-05-02T04:02:46.752Z,188.00
2023-05-02T04:03:46.873Z,200.00
2023-05-02T04:04:47.630Z,220.00
2023-05-02T04:05:46.552Z,236.00
2023-05-02T04:06:46.645Z,256.00
2023-05-02T04:07:46.589Z,272.00
2023-05-02T04:08:46.553Z,296.00
2023-05-02T04:09:46.499Z,320.00
2023-05-02T04:10:46.512Z,352.00
2023-05-02T04:11:46.478Z,384.00
2023-05-02T04:12:46.485Z,420.00
2023-05-02T04:13:46.454Z,464.00
2023-05-02T04:14:46.438Z,508.00
2023-05-02T04:15:46.456Z,552.00
2023-05-02T04:16:46.452Z,588.00
2023-05-02T04:17:46.476Z,616.00
2023-05-02T04:18:46.407Z,636.00
2023-05-02T04:19:46.409Z,656.00
2023-05-02T04:20:46.376Z,680.00
2023-05-02T04:21:46.365Z,704.00
2023-05-02T04:22:46.467Z,732.00
2023-05-02T04:23:46.362Z,760.00
2023-05-02T04:24:46.327Z,796.00
2023-05-02T04:25:46.328Z,840.00
2023-05-02T04:26:46.337Z,880.00
2023-05-02T04:27:46.295Z,920.00
2023-05-02T04:28:46.298Z,952.00
2023-05-02T04:29:46.282Z,988.00
2023-05-02T04:30:46.315Z,1028.00
2023-05-02T04:31:46.260Z,1080.00
2023-05-02T04:32:46.301Z,1136.00
2023-05-02T04:33:46.241Z,1192.00
2023-05-02T04:34:46.231Z,1248.00
2023-05-02T04:35:46.262Z,1308.00
2023-05-02T04:36:46.247Z,1360.00
2023-05-02T04:37:46.213Z,1404.00
2023-05-02T04:38:46.200Z,1452.00
2023-05-02T04:39:46.170Z,1496.00
2023-05-02T04:40:46.159Z,1532.00
2023-05-02T04:41:46.599Z,1552.00
2023-05-02T04:42:46.153Z,1568.00
2023-05-02T04:43:46.128Z,1588.00
2023-05-02T04:44:46.100Z,1624.00
2023-05-02T04:45:46.207Z,1688.00
2023-05-02T04:46:46.208Z,1744.00
2023-05-02T04:47:46.205Z,1792.00
2023-05-02T04:48:46.085Z,1828.00
2023-05-02T04:49:46.088Z,1860.00
2023-05-02T04:50:46.047Z,1892.00
2023-05-02T04:51:46.034Z,1912.00
2023-05-02T04:52:46.052Z,1944.00
2023-05-02T04:53:46.010Z,1984.00
2023-05-02T04:54:46.028Z,2008.00
2023-05-02T04:55:45.998Z,2032.00
2023-05-02T04:56:45.989Z,2048.00
2023-05-02T04:57:45.978Z,2060.00
2023-05-02T04:58:45.971Z,2072.00
2023-05-02T04:59:45.946Z,2080.00
2023-05-02T05:00:45.984Z,2108.00
2023-05-02T05:01:45.974Z,2144.00
2023-05-02T05:02:46.935Z,2204.00
2023-05-02T05:03:46.273Z,2272.00
2023-05-02T05:04:45.897Z,2336.00
2023-05-02T05:05:45.963Z,2400.00
2023-05-02T05:06:45.890Z,2456.00
2023-05-02T05:07:45.872Z,2444.00
2023-05-02T05:08:45.861Z,2504.00
2023-05-02T05:09:45.829Z,2548.00
2023-05-02T05:10:45.806Z,2616.00
2023-05-02T05:11:45.811Z,2668.00
2023-05-02T05:12:45.792Z,2708.00
2023-05-02T05:13:45.880Z,2764.00
2023-05-02T05:14:45.772Z,2840.00
2023-05-02T05:15:45.811Z,2892.00
2023-05-02T05:16:45.902Z,2920.00
2023-05-02T05:17:45.821Z,2928.00
2023-05-02T05:18:45.745Z,2900.00
2023-05-02T05:19:45.739Z,2868.00
2023-05-02T05:20:45.804Z,2868.00
2023-05-02T05:21:45.696Z,2928.00
2023-05-02T05:22:45.693Z,3040.00
2023-05-02T05:23:45.712Z,3160.00
2023-05-02T05:24:45.673Z,3244.00
2023-05-02T05:25:46.014Z,3300.00
2023-05-02T05:26:45.677Z,3368.00
2023-05-02T05:27:45.722Z,3416.00
2023-05-02T05:28:45.678Z,3436.00
2023-05-02T05:29:45.603Z,3416.00
2023-05-02T05:30:45.590Z,3424.00
2023-05-02T05:31:45.651Z,3496.00
2023-05-02T05:32:45.622Z,3496.00
2023-05-02T05:33:45.601Z,3452.00
2023-05-02T05:34:45.597Z,3360.00
2023-05-02T05:35:45.582Z,3316.00
2023-05-02T05:36:45.585Z,3260.00
2023-05-02T05:37:45.586Z,3240.00
2023-05-02T05:38:45.579Z,3272.00
2023-05-02T05:39:45.506Z,3400.00
2023-05-02T05:40:45.481Z,3556.00
2023-05-02T05:41:45.485Z,3720.00
2023-05-02T05:42:45.466Z,3792.00
2023-05-02T05:43:45.461Z,3768.00
2023-05-02T05:44:45.650Z,3732.00
2023-05-02T05:45:45.430Z,3688.00
2023-05-02T05:46:45.438Z,3636.00
2023-05-02T05:47:45.462Z,3596.00
2023-05-02T05:48:45.408Z,3540.00
2023-05-02T05:49:45.441Z,3492.00
2023-05-02T05:50:45.426Z,3444.00
2023-05-02T05:51:45.454Z,3452.00
2023-05-02T05:52:45.405Z,3480.00
2023-05-02T05:53:45.375Z,3580.00
2023-05-02T05:54:45.348Z,3736.00
2023-05-02T05:55:45.331Z,3888.00
2023-05-02T05:56:45.318Z,3992.00
2023-05-02T05:57:45.290Z,4072.00
2023-05-02T05:58:45.325Z,4080.00
2023-05-02T05:59:45.297Z,4092.00
2023-05-02T06:00:45.317Z,4120.00
2023-05-02T06:01:45.272Z,4152.00
2023-05-02T06:02:45.395Z,4172.00
2023-05-02T06:03:45.338Z,4200.00
2023-05-02T06:04:45.246Z,4256.00
2023-05-02T06:05:45.263Z,4308.00
2023-05-02T06:06:45.243Z,4352.00
2023-05-02T06:07:45.214Z,4384.00
2023-05-02T06:08:45.217Z,4396.00
2023-05-02T06:09:45.171Z,4432.00
2023-05-02T06:10:45.602Z,4496.00
2023-05-02T06:11:45.185Z,4648.00
2023-05-02T06:12:46.621Z,4880.00
2023-05-02T06:13:45.117Z,5116.00
2023-05-02T06:14:45.116Z,5316.00
2023-05-02T06:15:45.152Z,5452.00
2023-05-02T06:16:45.124Z,5572.00
2023-05-02T06:17:46.032Z,5664.00
2023-05-02T06:18:45.081Z,5740.00
2023-05-02T06:19:45.084Z,5808.00
2023-05-02T06:20:45.107Z,5868.00
2023-05-02T06:21:45.042Z,5944.00
2023-05-02T06:22:45.047Z,6048.00
2023-05-02T06:23:45.007Z,6112.00
2023-05-02T06:24:45.010Z,6080.00
2023-05-02T06:25:45.059Z,5980.00
2023-05-02T06:26:44.972Z,5704.00
2023-05-02T06:27:44.996Z,5772.00
2023-05-02T06:28:44.971Z,5728.00
2023-05-02T06:29:44.954Z,5744.00
2023-05-02T06:30:44.932Z,5748.00
2023-05-02T06:31:44.949Z,5800.00
2023-05-02T06:32:44.913Z,5856.00
2023-05-02T06:33:44.910Z,5932.00
2023-05-02T06:34:44.971Z,6084.00
2023-05-02T06:35:44.865Z,6240.00
2023-05-02T06:36:44.878Z,6328.00
2023-05-02T06:37:44.878Z,6552.00
2023-05-02T06:38:44.843Z,6700.00
2023-05-02T06:39:44.857Z,6700.00
2023-05-02T06:40:44.806Z,6704.00
2023-05-02T06:41:44.799Z,6444.00
2023-05-02T06:42:44.794Z,6508.00
2023-05-02T06:43:44.872Z,6428.00
2023-05-02T06:44:44.816Z,6424.00
2023-05-02T06:45:44.770Z,6344.00
2023-05-02T06:46:44.820Z,6372.00
2023-05-02T06:47:44.772Z,6108.00
2023-05-02T06:48:44.739Z,6120.00
2023-05-02T06:49:44.729Z,5804.00
2023-05-02T06:50:44.744Z,6128.00
2023-05-02T06:51:44.698Z,6308.00
2023-05-02T06:52:44.712Z,6364.00
2023-05-02T06:53:44.696Z,6380.00
2023-05-02T06:54:44.699Z,6560.00
2023-05-02T06:55:44.697Z,6668.00
2023-05-02T06:56:44.713Z,6736.00
2023-05-02T06:57:44.635Z,6764.00
2023-05-02T06:58:44.610Z,6920.00
2023-05-02T06:59:44.624Z,7024.00
2023-05-02T07:00:44.654Z,6908.00
2023-05-02T07:01:44.600Z,7072.00
2023-05-02T07:02:44.596Z,7292.00
2023-05-02T07:03:44.783Z,7444.00
2023-05-02T07:04:44.721Z,7612.00
2023-05-02T07:05:44.555Z,7756.00
2023-05-02T07:06:44.577Z,7784.00
2023-05-02T07:07:44.517Z,7740.00
2023-05-02T07:08:44.490Z,7684.00
2023-05-02T07:09:44.490Z,7648.00
2023-05-02T07:10:44.505Z,7620.00
2023-05-02T07:11:44.487Z,7564.00
2023-05-02T07:12:44.499Z,7328.00
2023-05-02T07:13:44.480Z,7220.00
2023-05-02T07:14:44.497Z,7464.00
2023-05-02T07:15:44.447Z,7528.00
2023-05-02T07:16:44.474Z,7700.00
2023-05-02T07:17:44.442Z,7804.00
2023-05-02T07:18:44.381Z,7828.00
2023-05-02T07:19:45.706Z,7944.00
2023-05-02T07:20:44.399Z,7956.00
2023-05-02T07:21:44.348Z,7940.00
2023-05-02T07:22:44.356Z,7892.00
2023-05-02T07:23:44.357Z,7812.00
2023-05-02T07:24:44.360Z,7744.00
2023-05-02T07:25:44.342Z,7680.00
2023-05-02T07:26:44.312Z,7576.00
2023-05-02T07:27:44.329Z,7372.00
2023-05-02T07:28:44.277Z,7164.00
2023-05-02T07:29:44.279Z,7052.00
2023-05-02T07:30:44.295Z,7004.00
2023-05-02T07:31:44.332Z,6980.00
2023-05-02T07:32:44.324Z,6840.00
2023-05-02T07:33:44.211Z,6632.00
2023-05-02T07:34:44.247Z,6200.00
2023-05-02T07:35:44.215Z,6012.00
2023-05-02T07:36:44.263Z,6420.00
2023-05-02T07:37:44.190Z,6728.00
2023-05-02T07:38:44.170Z,6872.00
2023-05-02T07:39:44.170Z,6952.00
2023-05-02T07:40:44.158Z,7128.00
2023-05-02T07:41:44.122Z,7044.00
2023-05-02T07:42:44.145Z,7008.00
2023-05-02T07:43:44.247Z,7372.00
2023-05-02T07:44:44.274Z,7728.00
2023-05-02T07:45:44.922Z,7944.00
2023-05-02T07:46:44.190Z,7948.00
2023-05-02T07:47:44.072Z,7772.00
2023-05-02T07:48:44.933Z,7388.00
2023-05-02T07:49:44.039Z,6936.00
2023-05-02T07:50:44.046Z,6828.00
2023-05-02T07:51:42.267Z,6964.00
2023-05-02T07:52:42.496Z,7204.00
2023-05-02T07:53:42.311Z,7512.00
2023-05-02T07:54:42.310Z,7640.00
2023-05-02T07:55:42.303Z,7636.00
2023-05-02T07:56:42.285Z,7624.00
2023-05-02T07:57:42.294Z,7716.00
2023-05-02T07:58:42.246Z,7860.00
2023-05-02T07:59:42.316Z,8028.00
2023-05-02T08:00:42.254Z,8208.00
2023-05-02T08:01:42.217Z,8264.00
2023-05-02T08:02:42.284Z,8284.00
2023-05-02T08:03:42.419Z,8308.00
2023-05-02T08:04:42.231Z,8212.00
2023-05-02T08:05:42.265Z,8260.00
2023-05-02T08:06:42.211Z,8436.00
2023-05-02T08:07:42.152Z,8632.00
2023-05-02T08:08:42.138Z,8784.00
2023-05-02T08:09:42.134Z,8852.00
2023-05-02T08:10:42.160Z,8872.00
2023-05-02T08:11:42.143Z,8872.00
2023-05-02T08:12:42.133Z,8896.00
2023-05-02T08:13:42.086Z,8996.00
2023-05-02T08:14:42.100Z,9004.00
2023-05-02T08:15:42.119Z,8904.00
2023-05-02T08:16:43.487Z,8764.00
2023-05-02T08:17:42.115Z,8720.00
2023-05-02T08:18:42.049Z,8852.00
2023-05-02T08:19:42.036Z,8924.00
2023-05-02T08:20:42.022Z,8964.00
2023-05-02T08:21:42.069Z,9176.00
2023-05-02T08:22:41.980Z,9268.00
2023-05-02T08:23:42.061Z,9284.00
2023-05-02T08:24:42.018Z,9344.00
2023-05-02T08:25:42.012Z,9076.00
2023-05-02T08:26:41.935Z,8996.00
2023-05-02T08:27:41.961Z,8936.00
2023-05-02T08:28:41.914Z,8980.00
2023-05-02T08:29:41.907Z,8936.00
2023-05-02T08:30:41.935Z,8768.00
2023-05-02T08:31:42.175Z,8684.00
2023-05-02T08:32:41.951Z,8668.00
2023-05-02T08:33:41.883Z,8692.00
2023-05-02T08:34:41.967Z,8640.00
2023-05-02T08:35:42.102Z,8312.00
2023-05-02T08:36:41.822Z,8092.00
2023-05-02T08:37:43.002Z,8228.00
2023-05-02T08:38:41.814Z,8444.00
2023-05-02T08:39:42.023Z,8556.00
2023-05-02T08:40:43.406Z,8572.00
2023-05-02T08:41:41.814Z,8692.00
2023-05-02T08:42:41.756Z,8816.00
2023-05-02T08:43:41.768Z,8876.00
2023-05-02T08:44:41.747Z,9048.00
2023-05-02T08:45:41.774Z,9204.00
2023-05-02T08:46:41.893Z,9372.00
2023-05-02T08:47:41.767Z,9448.00
2023-05-02T08:48:41.701Z,9620.00
2023-05-02T08:49:41.713Z,9616.00
2023-05-02T08:50:41.831Z,9672.00
2023-05-02T08:51:42.380Z,9688.00
2023-05-02T08:52:41.653Z,9672.00
2023-05-02T08:53:41.693Z,9804.00
2023-05-02T08:54:41.615Z,9864.00
2023-05-02T08:55:41.616Z,9856.00
2023-05-02T08:56:42.616Z,9976.00
2023-05-02T08:57:41.621Z,10080.00
2023-05-02T08:58:41.834Z,10132.00
2023-05-02T08:59:41.617Z,10108.00
2023-05-02T09:00:41.645Z,10092.00
2023-05-02T09:01:41.839Z,10148.00
2023-05-02T09:02:41.667Z,10240.00
2023-05-02T09:03:41.531Z,10300.00
2023-05-02T09:04:42.228Z,10312.00
2023-05-02T09:05:41.540Z,10284.00
2023-05-02T09:06:41.559Z,10216.00
2023-05-02T09:07:41.515Z,10136.00
2023-05-02T09:08:41.471Z,10164.00
2023-05-02T09:09:41.581Z,10036.00
2023-05-02T09:10:41.457Z,10072.00
2023-05-02T09:11:41.816Z,10124.00
2023-05-02T09:12:41.419Z,10152.00
2023-05-02T09:13:41.458Z,10160.00
2023-05-02T09:14:41.513Z,10136.00
2023-05-02T09:15:41.387Z,10088.00
2023-05-02T09:16:41.432Z,9972.00
2023-05-02T09:17:41.455Z,9860.00
2023-05-02T09:18:41.364Z,9808.00
2023-05-02T09:19:41.340Z,9592.00
2023-05-02T09:20:41.339Z,9312.00
2023-05-02T09:21:41.410Z,9040.00
2023-05-02T09:22:41.348Z,8804.00
2023-05-02T09:23:41.307Z,8828.00
2023-05-02T09:24:41.316Z,9288.00
2023-05-02T09:25:41.299Z,9860.00
2023-05-02T09:26:41.273Z,10396.00
2023-05-02T09:27:41.255Z,10656.00
2023-05-02T09:28:41.311Z,10840.00
2023-05-02T09:29:41.226Z,10940.00
2023-05-02T09:30:41.268Z,11044.00
2023-05-02T09:31:55.025Z,11124.00
2023-05-02T09:32:41.248Z,11120.00
2023-05-02T09:33:41.197Z,11092.00
2023-05-02T09:34:41.222Z,11024.00
2023-05-02T09:35:41.173Z,10888.00
2023-05-02T09:36:41.229Z,10656.00
2023-05-02T09:37:41.143Z,10336.00
2023-05-02T09:38:41.417Z,10036.00
2023-05-02T09:39:41.128Z,9684.00
2023-05-02T09:40:41.118Z,9432.00
2023-05-02T09:41:41.210Z,9368.00
2023-05-02T09:42:41.110Z,9256.00
2023-05-02T09:43:41.146Z,9192.00
2023-05-02T09:44:41.079Z,9252.00
2023-05-02T09:45:41.067Z,9304.00
2023-05-02T09:46:41.096Z,9476.00
2023-05-02T09:47:41.818Z,10104.00
2023-05-02T09:48:41.057Z,10852.00
2023-05-02T09:49:41.028Z,11384.00
2023-05-02T09:50:41.017Z,11656.00
2023-05-02T09:51:40.988Z,11716.00
2023-05-02T09:52:40.982Z,11632.00
2023-05-02T09:53:41.098Z,11504.00
2023-05-02T09:54:40.984Z,11440.00
2023-05-02T09:55:40.969Z,11476.00
2023-05-02T09:56:40.930Z,11532.00
2023-05-02T09:57:40.940Z,11584.00
2023-05-02T09:58:40.950Z,11648.00
2023-05-02T09:59:41.257Z,11648.00
2023-05-02T10:00:40.891Z,11588.00
2023-05-02T10:01:40.933Z,11540.00
2023-05-02T10:02:40.915Z,11520.00
2023-05-02T10:03:40.862Z,11472.00
2023-05-02T10:04:41.026Z,11476.00
2023-05-02T10:05:40.853Z,11484.00
2023-05-02T10:06:40.964Z,11536.00
2023-05-02T10:07:40.857Z,11700.00
2023-05-02T10:08:40.799Z,11676.00
2023-05-02T10:09:40.802Z,11716.00
2023-05-02T10:10:41.814Z,11544.00
2023-05-02T10:11:40.769Z,11184.00
2023-05-02T10:12:40.806Z,10704.00
2023-05-02T10:13:40.960Z,10296.00
2023-05-02T10:14:40.772Z,9752.00
2023-05-02T10:15:40.751Z,9072.00
2023-05-02T10:16:40.803Z,8248.00
2023-05-02T10:17:40.736Z,7464.00
2023-05-02T10:18:40.694Z,6940.00
2023-05-02T10:19:40.679Z,6796.00
2023-05-02T10:20:40.667Z,6756.00
2023-05-02T10:21:40.655Z,6720.00
2023-05-02T10:22:41.065Z,6612.00
2023-05-02T10:23:40.657Z,6396.00
2023-05-02T10:24:40.734Z,5984.00
2023-05-02T10:25:40.635Z,5572.00
2023-05-02T10:26:40.667Z,5228.00
2023-05-02T10:27:40.663Z,4972.00
2023-05-02T10:28:40.594Z,4772.00
2023-05-02T10:29:40.566Z,4696.00
2023-05-02T10:30:40.568Z,4716.00
2023-05-02T10:31:41.894Z,4804.00
2023-05-02T10:32:40.575Z,4912.00
2023-05-02T10:33:40.528Z,4976.00
2023-05-02T10:34:40.509Z,4976.00
2023-05-02T10:35:40.504Z,4660.00
2023-05-02T10:36:40.498Z,4208.00
2023-05-02T10:37:40.564Z,3764.00
2023-05-02T10:38:40.469Z,3500.00
2023-05-02T10:39:41.122Z,3328.00
2023-05-02T10:40:40.447Z,3300.00
2023-05-02T10:41:40.457Z,3492.00
2023-05-02T10:42:40.444Z,3692.00
2023-05-02T10:43:40.399Z,3736.00
2023-05-02T10:44:40.407Z,3644.00
2023-05-02T10:45:40.380Z,3864.00
2023-05-02T10:46:40.506Z,4124.00
2023-05-02T10:47:40.422Z,4312.00
2023-05-02T10:48:40.391Z,4416.00
2023-05-02T10:49:40.472Z,4284.00
2023-05-02T10:50:40.329Z,3756.00
2023-05-02T10:51:40.386Z,3484.00
2023-05-02T10:52:40.383Z,3552.00
2023-05-02T10:53:40.364Z,3916.00
2023-05-02T10:54:40.293Z,4212.00
2023-05-02T10:55:40.271Z,4356.00
2023-05-02T10:56:40.319Z,4276.00
2023-05-02T10:57:40.253Z,3632.00
2023-05-02T10:58:40.274Z,2648.00
2023-05-02T10:59:40.238Z,2160.00
2023-05-02T11:00:40.242Z,1916.00
2023-05-02T11:01:40.270Z,1612.00
2023-05-02T11:02:40.355Z,1560.00
2023-05-02T11:03:40.235Z,1636.00
2023-05-02T11:04:40.263Z,1748.00
2023-05-02T11:05:40.757Z,2176.00
2023-05-02T11:06:40.220Z,2628.00
2023-05-02T11:07:40.129Z,3188.00
2023-05-02T11:08:40.196Z,3352.00
2023-05-02T11:09:40.141Z,3580.00
2023-05-02T11:10:40.124Z,4180.00
2023-05-02T11:11:40.148Z,4268.00
2023-05-02T11:12:40.084Z,4016.00
2023-05-02T11:13:40.195Z,4484.00
2023-05-02T11:14:40.082Z,5424.00
2023-05-02T11:15:40.063Z,5984.00
2023-05-02T11:16:40.197Z,6376.00
2023-05-02T11:17:40.079Z,6716.00
2023-05-02T11:18:40.251Z,7052.00
2023-05-02T11:19:40.008Z,7224.00
2023-05-02T11:20:40.135Z,7300.00
2023-05-02T11:21:39.987Z,7320.00
2023-05-02T11:22:39.995Z,7380.00
2023-05-02T11:23:39.989Z,7476.00
2023-05-02T11:24:39.990Z,7532.00
2023-05-02T11:25:40.294Z,7596.00
2023-05-02T11:26:39.923Z,7668.00
2023-05-02T11:27:39.921Z,7796.00
2023-05-02T11:28:39.939Z,7660.00
2023-05-02T11:29:39.912Z,7480.00
2023-05-02T11:30:40.266Z,7548.00
2023-05-02T11:31:39.919Z,7640.00
2023-05-02T11:32:39.932Z,7696.00
2023-05-02T11:33:39.890Z,7736.00
2023-05-02T11:34:39.848Z,7720.00
2023-05-02T11:35:39.865Z,7492.00
2023-05-02T11:36:39.815Z,7256.00
2023-05-02T11:37:39.814Z,6840.00
2023-05-02T11:38:39.861Z,6924.00
2023-05-02T11:39:39.817Z,6728.00
2023-05-02T11:40:39.831Z,6932.00
2023-05-02T11:41:39.781Z,7152.00
2023-05-02T11:42:39.847Z,7260.00
2023-05-02T11:43:39.762Z,7240.00
2023-05-02T11:44:39.730Z,7248.00
2023-05-02T11:45:39.737Z,7084.00
2023-05-02T11:46:39.791Z,6816.00
2023-05-02T11:47:39.707Z,6788.00
2023-05-02T11:48:39.826Z,7424.00
2023-05-02T11:49:39.662Z,8532.00
2023-05-02T11:50:41.819Z,9080.00
2023-05-02T11:51:39.654Z,9340.00
2023-05-02T11:52:39.661Z,9480.00
2023-05-02T11:53:39.633Z,9504.00
2023-05-02T11:54:39.619Z,9480.00
2023-05-02T11:55:39.613Z,9588.00
2023-05-02T11:56:39.624Z,9772.00
2023-05-02T11:57:39.584Z,9916.00
2023-05-02T11:58:39.612Z,10064.00
2023-05-02T11:59:39.560Z,10172.00
2023-05-02T12:00:39.877Z,10264.00
2023-05-02T12:01:39.608Z,10284.00
2023-05-02T12:02:39.689Z,10260.00
2023-05-02T12:03:39.601Z,10256.00
2023-05-02T12:04:39.498Z,10260.00
2023-05-02T12:05:39.609Z,10124.00
2023-05-02T12:06:40.185Z,9760.00
2023-05-02T12:07:39.484Z,9492.00
2023-05-02T12:08:39.553Z,9488.00
2023-05-02T12:09:39.531Z,9568.00
2023-05-02T12:10:39.435Z,9680.00
2023-05-02T12:11:39.514Z,9768.00
2023-05-02T12:12:39.486Z,9708.00
2023-05-02T12:13:39.459Z,9536.00
2023-05-02T12:14:39.462Z,9160.00
2023-05-02T12:15:39.405Z,8956.00
2023-05-02T12:16:39.488Z,9148.00
2023-05-02T12:17:39.398Z,9104.00
2023-05-02T12:18:39.356Z,8988.00
2023-05-02T12:19:39.346Z,9144.00
2023-05-02T12:20:39.348Z,9260.00
2023-05-02T12:21:39.306Z,9168.00
2023-05-02T12:22:39.389Z,8912.00
2023-05-02T12:23:39.295Z,8760.00
2023-05-02T12:24:39.317Z,8768.00
2023-05-02T12:25:39.266Z,8800.00